createdAt,value
2023-05-06T00:02:04.570Z,4.63
2023-05-06T00:04:33.676Z,4.90
2023-05-06T00:07:02.656Z,4.93
2023-05-06T00:09:32.880Z,4.33
2023-05-06T00:12:01.499Z,4.90
2023-05-06T00:14:30.073Z,4.47
2023-05-06T00:16:58.712Z,4.67
2023-05-06T00:19:27.819Z,4.43
2023-05-06T00:21:57.519Z,4.03
2023-05-06T00:24:26.203Z,4.00
2023-05-06T00:26:56.983Z,4.10
2023-05-06T00:29:25.652Z,3.97
2023-05-06T00:31:54.416Z,4.13
2023-05-06T00:34:22.966Z,4.10
2023-05-06T00:36:51.485Z,4.07
2023-05-06T00:39:20.031Z,4.17
2023-05-06T00:41:48.517Z,3.73
2023-05-06T00:44:18.672Z,3.70
2023-05-06T00:46:47.352Z,4.00
2023-05-06T00:49:16.002Z,3.67
2023-05-06T00:51:44.609Z,3.80
2023-05-06T00:54:13.433Z,3.80
2023-05-06T00:56:43.308Z,4.10
2023-05-06T00:59:11.920Z,3.50
2023-05-06T01:01:42.412Z,3.60
2023-05-06T01:04:11.162Z,4.10
2023-05-06T01:06:45.690Z,4.33
2023-05-06T01:09:22.477Z,4.10
2023-05-06T01:11:55.072Z,3.70
2023-05-06T01:14:28.497Z,4.07
2023-05-06T01:17:05.200Z,3.50
2023-05-06T01:19:43.176Z,3.60
2023-05-06T01:22:12.904Z,3.80
2023-05-06T01:24:44.417Z,3.57
2023-05-06T01:27:14.207Z,3.50
2023-05-06T01:29:44.657Z,4.30
2023-05-06T01:32:42.014Z,3.80
2023-05-06T01:35:19.937Z,3.80
2023-05-06T01:37:54.045Z,4.03
2023-05-06T01:40:27.566Z,3.70
2023-05-06T01:42:58.040Z,3.77
2023-05-06T01:45:30.518Z,4.00
2023-05-06T01:47:59.950Z,4.07
2023-05-06T01:50:29.672Z,3.70
2023-05-06T01:53:00.378Z,3.83
2023-05-06T01:55:30.737Z,3.43
2023-05-06T01:57:59.825Z,3.90
2023-05-06T02:00:28.871Z,3.67
2023-05-06T02:02:57.655Z,3.70
2023-05-06T02:05:26.621Z,3.80
2023-05-06T02:07:55.719Z,4.27
2023-05-06T02:10:24.299Z,3.80
2023-05-06T02:12:54.213Z,3.30
2023-05-06T02:15:22.868Z,3.73
2023-05-06T02:17:51.468Z,3.80
2023-05-06T02:20:20.063Z,3.60
2023-05-06T02:22:48.536Z,4.27
2023-05-06T02:25:17.207Z,3.80
2023-05-06T02:27:46.078Z,3.60
2023-05-06T02:30:16.194Z,3.53
2023-05-06T02:32:44.777Z,3.97
2023-05-06T02:35:13.618Z,4.33
2023-05-06T02:37:42.183Z,5.17
2023-05-06T02:40:11.461Z,3.70
2023-05-06T02:42:40.123Z,3.67
2023-05-06T02:45:10.664Z,3.70
2023-05-06T02:47:41.168Z,3.60
2023-05-06T02:50:10.348Z,3.33
2023-05-06T02:52:38.987Z,3.83
2023-05-06T02:55:08.612Z,3.80
2023-05-06T02:57:37.473Z,3.83
2023-05-06T03:00:07.612Z,3.53
2023-05-06T03:02:36.259Z,3.57
2023-05-06T03:05:07.058Z,3.33
2023-05-06T03:07:37.177Z,3.60
2023-05-06T03:10:06.468Z,3.50
2023-05-06T03:12:35.080Z,3.50
2023-05-06T03:15:03.804Z,3.73
2023-05-06T03:17:32.438Z,3.17
2023-05-06T03:20:01.023Z,3.83
2023-05-06T03:22:30.988Z,3.60
2023-05-06T03:24:59.642Z,4.20
2023-05-06T03:27:28.328Z,4.10
2023-05-06T03:29:56.908Z,3.70
2023-05-06T03:32:25.636Z,4.00
2023-05-06T03:34:54.370Z,3.33
2023-05-06T03:37:23.068Z,4.10
2023-05-06T03:39:53.036Z,4.00
2023-05-06T03:42:22.182Z,3.83
2023-05-06T03:44:50.959Z,4.40
2023-05-06T03:47:19.751Z,3.30
2023-05-06T03:49:48.286Z,3.20
2023-05-06T03:52:17.010Z,3.50
2023-05-06T03:54:45.520Z,3.37
2023-05-06T03:57:15.567Z,3.10
2023-05-06T03:59:44.126Z,4.07
2023-05-06T04:02:12.747Z,3.50
2023-05-06T04:04:41.431Z,3.60
2023-05-06T04:07:10.018Z,3.43
2023-05-06T04:09:38.618Z,3.30
2023-05-06T04:12:07.480Z,3.03
2023-05-06T04:14:37.779Z,3.83
2023-05-06T04:17:06.394Z,2.90
2023-05-06T04:19:34.999Z,3.27
2023-05-06T04:22:03.617Z,3.00
2023-05-06T04:24:32.708Z,3.20
2023-05-06T04:27:02.735Z,3.60
2023-05-06T04:29:31.303Z,3.17
2023-05-06T04:32:01.466Z,3.10
2023-05-06T04:34:30.226Z,3.47
2023-05-06T04:36:59.532Z,2.87
2023-05-06T04:39:28.113Z,3.43
2023-05-06T04:41:56.700Z,3.20
2023-05-06T04:44:25.314Z,3.67
2023-05-06T04:46:53.869Z,3.50
2023-05-06T04:49:24.002Z,3.20
2023-05-06T04:51:52.535Z,2.97
2023-05-06T04:54:21.141Z,3.00
2023-05-06T04:56:49.683Z,3.63
2023-05-06T04:59:18.339Z,3.27
2023-05-06T05:01:47.177Z,3.10
2023-05-06T05:04:18.373Z,3.60
2023-05-06T05:06:48.589Z,2.97
2023-05-06T05:09:17.214Z,3.30
2023-05-06T05:11:45.999Z,2.80
2023-05-06T05:14:14.545Z,3.00
2023-05-06T05:16:43.263Z,2.90
2023-05-06T05:19:11.902Z,3.27
2023-05-06T05:21:40.682Z,3.13
2023-05-06T05:24:10.750Z,3.60
2023-05-06T05:26:39.386Z,3.63
2023-05-06T05:29:08.210Z,3.33
2023-05-06T05:31:36.918Z,3.37
2023-05-06T05:34:05.669Z,4.57
2023-05-06T05:36:34.325Z,4.10
2023-05-06T05:39:03.023Z,3.60
2023-05-06T05:41:33.040Z,3.20
2023-05-06T05:44:01.632Z,3.47
2023-05-06T05:46:30.181Z,3.50
2023-05-06T05:48:58.808Z,3.50
2023-05-06T05:51:27.365Z,3.47
2023-05-06T05:53:56.065Z,3.33
2023-05-06T05:56:25.067Z,3.53
2023-05-06T05:58:55.103Z,3.20
2023-05-06T06:01:23.651Z,3.60
2023-05-06T06:03:52.571Z,3.67
2023-05-06T06:06:21.368Z,3.50
2023-05-06T06:08:49.947Z,3.77
2023-05-06T06:11:18.510Z,3.17
2023-05-06T06:13:47.148Z,3.30
2023-05-06T06:16:17.303Z,3.77
2023-05-06T06:18:45.930Z,3.50
2023-05-06T06:21:14.622Z,3.80
2023-05-06T06:23:43.206Z,3.93
2023-05-06T06:26:12.436Z,3.70
2023-05-06T06:28:42.091Z,3.63
2023-05-06T06:31:12.710Z,3.50
2023-05-06T06:33:42.806Z,3.87
2023-05-06T06:36:11.873Z,3.37
2023-05-06T06:38:41.569Z,3.53
2023-05-06T06:41:11.658Z,2.77
2023-05-06T06:43:40.267Z,2.40
2023-05-06T06:46:08.860Z,3.00
2023-05-06T06:48:37.399Z,2.40
2023-05-06T06:51:07.592Z,2.43
2023-05-06T06:53:36.151Z,2.83
2023-05-06T06:56:04.847Z,2.67
2023-05-06T06:58:35.137Z,2.77
2023-05-06T07:01:03.856Z,2.63
2023-05-06T07:03:32.698Z,2.58
2023-05-06T07:06:01.513Z,2.50
2023-05-06T07:08:31.559Z,2.53
2023-05-06T07:11:00.176Z,2.25
2023-05-06T07:13:29.066Z,2.60
2023-05-06T07:16:00.138Z,2.28
2023-05-06T07:18:29.134Z,2.17
2023-05-06T07:20:57.811Z,2.05
2023-05-06T07:23:26.685Z,2.28
2023-05-06T07:25:56.726Z,2.70
2023-05-06T07:28:25.304Z,2.47
2023-05-06T07:30:54.462Z,2.17
2023-05-06T07:33:23.119Z,2.45
2023-05-06T07:35:51.953Z,2.33
2023-05-06T07:38:22.908Z,2.10
2023-05-06T07:40:51.807Z,2.00
2023-05-06T07:43:23.031Z,2.30
2023-05-06T07:45:51.688Z,1.98
2023-05-06T07:48:20.543Z,2.10
2023-05-06T07:50:49.350Z,1.65
2023-05-06T07:53:17.918Z,2.22
2023-05-06T07:55:46.542Z,1.98
2023-05-06T07:58:15.120Z,1.90
2023-05-06T08:00:45.202Z,1.90
2023-05-06T08:03:14.080Z,2.05
2023-05-06T08:05:42.865Z,2.17
2023-05-06T08:08:11.756Z,1.92
2023-05-06T08:10:40.434Z,2.00
2023-05-06T08:13:09.110Z,2.33
2023-05-06T08:15:37.773Z,1.60
2023-05-06T08:18:20.945Z,1.95
2023-05-06T08:20:50.062Z,1.88
2023-05-06T08:23:18.720Z,2.17
2023-05-06T08:25:47.491Z,2.05
2023-05-06T08:28:16.062Z,1.83
2023-05-06T08:30:47.742Z,2.00
2023-05-06T08:33:17.718Z,1.83
2023-05-06T08:35:46.857Z,2.00
2023-05-06T08:38:15.700Z,1.75
2023-05-06T08:40:45.496Z,2.20
2023-05-06T08:43:15.206Z,1.80
2023-05-06T08:45:44.086Z,1.80
2023-05-06T08:48:13.076Z,1.80
2023-05-06T08:50:45.464Z,1.80
2023-05-06T08:53:14.575Z,1.70
2023-05-06T08:55:44.420Z,2.10
2023-05-06T08:58:17.039Z,2.00
2023-05-06T09:00:48.702Z,1.60
2023-05-06T09:03:17.574Z,1.67
2023-05-06T09:05:47.688Z,1.80
2023-05-06T09:08:16.526Z,2.25
2023-05-06T09:10:46.386Z,1.95
2023-05-06T09:13:16.145Z,2.00
2023-05-06T09:15:47.421Z,2.28
2023-05-06T09:18:16.690Z,1.50
2023-05-06T09:20:48.440Z,1.90
2023-05-06T09:23:18.547Z,2.25
2023-05-06T09:25:49.938Z,2.15
2023-05-06T09:28:18.455Z,2.50
2023-05-06T09:30:48.032Z,2.05
2023-05-06T09:33:16.946Z,1.85
2023-05-06T09:35:45.919Z,1.92
2023-05-06T09:38:16.679Z,1.95
2023-05-06T09:40:45.223Z,1.67
2023-05-06T09:43:16.369Z,1.90
2023-05-06T09:45:46.456Z,1.85
2023-05-06T09:48:16.960Z,2.00
2023-05-06T09:50:45.958Z,2.00
2023-05-06T09:53:18.164Z,2.53
2023-05-06T09:55:47.297Z,2.20
2023-05-06T09:58:17.858Z,2.13
2023-05-06T10:00:46.944Z,2.55
2023-05-06T10:03:16.933Z,2.15
2023-05-06T10:05:46.351Z,1.90
2023-05-06T10:08:19.700Z,2.50
2023-05-06T10:10:50.336Z,4.45
2023-05-06T10:13:19.166Z,4.35
2023-05-06T10:15:49.530Z,2.05
2023-05-06T10:18:19.679Z,2.85
2023-05-06T10:20:49.365Z,2.28
2023-05-06T10:23:26.994Z,3.50
2023-05-06T10:25:58.561Z,2.83
2023-05-06T10:28:31.601Z,2.10
2023-05-06T10:31:01.119Z,2.00
2023-05-06T10:33:31.007Z,1.90
2023-05-06T10:36:10.250Z,2.10
2023-05-06T10:38:43.633Z,2.15
2023-05-06T10:41:13.063Z,1.80
2023-05-06T10:43:43.169Z,2.05
2023-05-06T10:46:13.428Z,2.05
2023-05-06T10:49:17.478Z,2.35
2023-05-06T10:51:46.045Z,2.15
2023-05-06T10:54:25.670Z,2.35
2023-05-06T10:57:10.471Z,2.15
2023-05-06T10:59:39.158Z,2.38
2023-05-06T11:02:11.418Z,2.00
2023-05-06T11:04:41.511Z,1.90
2023-05-06T11:07:12.534Z,2.05
2023-05-06T11:10:08.345Z,2.03
2023-05-06T11:12:47.616Z,3.50
2023-05-06T11:15:25.791Z,2.10
2023-05-06T11:17:56.349Z,1.90
2023-05-06T11:20:25.989Z,2.13
2023-05-06T11:22:56.190Z,1.95
2023-05-06T11:25:47.279Z,2.15
2023-05-06T11:28:17.057Z,2.13
2023-05-06T11:30:54.591Z,1.90
2023-05-06T11:33:25.584Z,1.83
2023-05-06T11:35:54.843Z,2.33
2023-05-06T11:38:23.463Z,2.00
2023-05-06T11:40:53.786Z,2.40
2023-05-06T11:43:22.373Z,5.40
2023-05-06T11:45:52.315Z,3.25
2023-05-06T11:48:20.993Z,2.30
2023-05-06T11:50:51.066Z,3.30
2023-05-06T11:53:21.937Z,2.50
2023-05-06T11:55:55.112Z,2.10
2023-05-06T11:58:27.735Z,2.08
2023-05-06T12:00:58.025Z,2.17
2023-05-06T12:03:28.914Z,2.38
2023-05-06T12:05:58.156Z,2.30
2023-05-06T12:08:28.818Z,2.05
2023-05-06T12:11:01.828Z,2.53
2023-05-06T12:13:31.436Z,2.20
2023-05-06T12:16:01.713Z,2.30
2023-05-06T12:18:30.578Z,2.35
2023-05-06T12:21:02.682Z,1.90
2023-05-06T12:23:31.471Z,2.42
2023-05-06T12:26:06.735Z,2.60
2023-05-06T12:28:38.719Z,2.30
2023-05-06T12:31:20.619Z,2.20
2023-05-06T12:33:50.895Z,2.85
2023-05-06T12:36:20.343Z,2.30
2023-05-06T12:38:53.200Z,2.45
2023-05-06T12:41:23.800Z,2.60
2023-05-06T12:43:53.262Z,2.55
2023-05-06T12:46:22.011Z,2.40
2023-05-06T12:49:04.441Z,2.40
2023-05-06T12:51:32.988Z,2.80
2023-05-06T12:54:01.550Z,2.60
2023-05-06T12:56:31.511Z,2.40
2023-05-06T12:59:01.409Z,2.40
2023-05-06T13:01:30.208Z,2.70
2023-05-06T13:03:58.883Z,2.70
2023-05-06T13:06:27.455Z,2.80
2023-05-06T13:08:55.942Z,3.90
2023-05-06T13:11:25.915Z,3.10
2023-05-06T13:13:56.206Z,3.57
2023-05-06T13:16:24.982Z,3.07
2023-05-06T13:18:53.599Z,3.30
2023-05-06T13:21:22.344Z,4.20
2023-05-06T13:23:51.040Z,3.47
2023-05-06T13:26:19.613Z,3.93
2023-05-06T13:28:48.790Z,3.30
2023-05-06T13:31:18.891Z,3.93
2023-05-06T13:33:47.983Z,3.60
2023-05-06T13:36:16.876Z,3.87
2023-05-06T13:38:45.689Z,4.23
2023-05-06T13:41:14.297Z,4.63
2023-05-06T13:43:42.879Z,4.57
2023-05-06T13:46:11.517Z,4.80
2023-05-06T13:48:42.176Z,4.60
2023-05-06T13:51:10.760Z,4.97
2023-05-06T13:53:39.672Z,4.60
2023-05-06T13:56:08.596Z,4.10
2023-05-06T13:58:37.307Z,4.37
2023-05-06T14:01:06.338Z,3.97
2023-05-06T14:03:34.952Z,3.83
2023-05-06T14:06:05.243Z,3.50
2023-05-06T14:08:34.326Z,4.00
2023-05-06T14:11:03.289Z,4.00
2023-05-06T14:13:33.803Z,4.23
2023-05-06T14:16:02.571Z,4.57
2023-05-06T14:18:32.185Z,5.30
2023-05-06T14:21:01.126Z,7.00
2023-05-06T14:23:31.291Z,5.70
2023-05-06T14:26:00.264Z,7.33
2023-05-06T14:28:28.876Z,6.77
2023-05-06T14:30:59.957Z,4.90
2023-05-06T14:33:28.775Z,4.87
2023-05-06T14:35:58.494Z,4.80
2023-05-06T14:38:27.077Z,5.17
2023-05-06T14:40:59.323Z,5.17
2023-05-06T14:43:28.259Z,5.07
2023-05-06T14:45:56.999Z,5.60
2023-05-06T14:48:26.470Z,6.17
2023-05-06T14:50:55.194Z,7.30
2023-05-06T14:53:23.966Z,6.67
2023-05-06T14:55:52.855Z,6.00
2023-05-06T14:58:23.060Z,6.30
2023-05-06T15:00:52.041Z,6.10
2023-05-06T15:03:21.216Z,5.70
2023-05-06T15:05:50.859Z,5.90
2023-05-06T15:08:21.584Z,6.27
2023-05-06T15:10:50.774Z,6.67
2023-05-06T15:13:19.668Z,6.95
2023-05-06T15:15:50.067Z,7.13
2023-05-06T15:18:18.777Z,6.97
2023-05-06T15:20:49.735Z,6.27
2023-05-06T15:23:18.735Z,6.50
2023-05-06T15:25:47.368Z,6.67
2023-05-06T15:28:15.954Z,6.10
2023-05-06T15:30:44.592Z,6.40
2023-05-06T15:33:14.989Z,6.07
2023-05-06T15:35:43.584Z,6.17
2023-05-06T15:38:13.242Z,6.10
2023-05-06T15:40:42.747Z,5.97
2023-05-06T15:43:17.737Z,6.50
2023-05-06T15:45:51.278Z,5.67
2023-05-06T15:48:21.331Z,6.10
2023-05-06T15:50:49.978Z,5.80
2023-05-06T15:53:20.663Z,5.53
2023-05-06T15:55:57.202Z,5.30
2023-05-06T15:58:30.678Z,5.00
2023-05-06T16:00:59.230Z,5.83
2023-05-06T16:03:29.423Z,5.30
2023-05-06T16:06:00.806Z,5.67
2023-05-06T16:08:29.451Z,5.27
2023-05-06T16:10:58.266Z,5.83
2023-05-06T16:13:27.287Z,5.90
2023-05-06T16:15:55.913Z,6.00
2023-05-06T16:18:24.545Z,5.60
2023-05-06T16:20:54.673Z,5.67
2023-05-06T16:23:23.209Z,6.73
2023-05-06T16:25:52.147Z,5.73
2023-05-06T16:28:20.728Z,6.83
2023-05-06T16:30:49.360Z,6.03
2023-05-06T16:33:17.921Z,7.20
2023-05-06T16:35:47.100Z,6.37
2023-05-06T16:38:17.113Z,6.80
2023-05-06T16:40:51.178Z,9.03
2023-05-06T16:43:20.002Z,8.50
2023-05-06T16:45:48.651Z,7.90
2023-05-06T16:48:17.929Z,7.30
2023-05-06T16:50:46.583Z,8.07
2023-05-06T16:53:17.578Z,7.73
2023-05-06T16:55:48.955Z,7.57
2023-05-06T16:58:17.610Z,7.93
2023-05-06T17:00:46.153Z,6.90
2023-05-06T17:03:15.006Z,7.93
2023-05-06T17:05:43.751Z,7.40
2023-05-06T17:08:12.688Z,7.97
2023-05-06T17:10:43.698Z,7.83
2023-05-06T17:13:12.451Z,8.50
2023-05-06T17:15:41.014Z,8.00
2023-05-06T17:18:09.901Z,7.60
2023-05-06T17:20:51.330Z,6.53
2023-05-06T17:23:23.350Z,8.03
2023-05-06T17:25:53.453Z,7.70
2023-05-06T17:28:22.085Z,7.03
2023-05-06T17:30:50.719Z,7.87
2023-05-06T17:33:20.598Z,7.90
2023-05-06T17:35:49.489Z,7.63
2023-05-06T17:38:18.175Z,7.67
2023-05-06T17:40:46.764Z,7.00
2023-05-06T17:43:16.772Z,8.23
2023-05-06T17:45:45.321Z,7.67
2023-05-06T17:48:13.926Z,7.10
2023-05-06T17:50:42.484Z,8.07
2023-05-06T17:53:11.101Z,7.57
2023-05-06T17:55:40.048Z,7.10
2023-05-06T17:58:08.590Z,6.47
2023-05-06T18:00:38.706Z,7.50
2023-05-06T18:03:07.362Z,8.30
2023-05-06T18:05:35.986Z,7.17
2023-05-06T18:08:05.057Z,8.70
2023-05-06T18:10:33.545Z,8.17
2023-05-06T18:13:02.488Z,10.13
2023-05-06T18:15:31.178Z,8.10
2023-05-06T18:18:01.576Z,8.03
2023-05-06T18:20:33.511Z,9.07
2023-05-06T18:23:02.346Z,13.17
2023-05-06T18:25:31.456Z,8.00
2023-05-06T18:28:00.080Z,7.70
2023-05-06T18:30:28.928Z,7.13
2023-05-06T18:32:58.188Z,7.53
2023-05-06T18:35:28.589Z,8.30
2023-05-06T18:37:57.172Z,8.63
2023-05-06T18:40:25.847Z,7.80
2023-05-06T18:42:56.744Z,7.20
2023-05-06T18:45:25.363Z,7.77
2023-05-06T18:47:54.377Z,7.73
2023-05-06T18:50:24.016Z,6.40
2023-05-06T18:52:55.339Z,6.53
2023-05-06T18:55:24.102Z,7.50
2023-05-06T18:57:52.741Z,7.17
2023-05-06T19:00:22.633Z,6.77
2023-05-06T19:02:51.290Z,7.50
2023-05-06T19:05:20.841Z,7.90
2023-05-06T19:07:49.383Z,7.27
2023-05-06T19:10:19.592Z,7.50
2023-05-06T19:12:48.161Z,6.67
2023-05-06T19:15:19.172Z,6.87
2023-05-06T19:17:47.728Z,7.13
2023-05-06T19:20:16.500Z,6.80
2023-05-06T19:22:45.109Z,6.60
2023-05-06T19:25:13.866Z,6.03
2023-05-06T19:27:44.222Z,7.07
2023-05-06T19:30:15.670Z,7.03
2023-05-06T19:32:44.701Z,6.77
2023-05-06T19:35:13.789Z,6.30
2023-05-06T19:37:42.554Z,7.23
2023-05-06T19:40:15.264Z,7.17
2023-05-06T19:42:46.433Z,6.60
2023-05-06T19:45:17.530Z,6.63
2023-05-06T19:47:47.762Z,7.70
2023-05-06T19:50:16.768Z,7.80
2023-05-06T19:52:51.377Z,7.73
2023-05-06T19:55:20.832Z,6.67
2023-05-06T19:57:51.619Z,6.30
2023-05-06T20:00:22.206Z,6.53
2023-05-06T20:02:50.960Z,6.03
2023-05-06T20:05:24.154Z,6.13
2023-05-06T20:07:53.351Z,5.73
2023-05-06T20:10:22.038Z,6.97
2023-05-06T20:12:52.019Z,7.20
2023-05-06T20:15:20.791Z,8.00
2023-05-06T20:17:49.535Z,8.23
2023-05-06T20:20:34.531Z,7.67
2023-05-06T20:23:03.485Z,7.93
2023-05-06T20:25:32.372Z,6.43
2023-05-06T20:28:03.709Z,7.07
2023-05-06T20:30:32.440Z,6.33
2023-05-06T20:33:01.326Z,6.67
2023-05-06T20:35:30.065Z,6.23
2023-05-06T20:37:58.694Z,6.73
2023-05-06T20:40:27.281Z,5.73
2023-05-06T20:42:56.392Z,6.20
2023-05-06T20:45:27.506Z,6.50
2023-05-06T20:47:56.253Z,6.10
2023-05-06T20:50:24.939Z,6.97
2023-05-06T20:52:54.616Z,6.40
2023-05-06T20:55:24.844Z,6.10
2023-05-06T20:57:55.523Z,6.60
2023-05-06T21:00:26.059Z,6.53
2023-05-06T21:02:55.087Z,6.50
2023-05-06T21:05:23.990Z,6.07
2023-05-06T21:07:52.592Z,6.60
2023-05-06T21:10:21.218Z,5.83
2023-05-06T21:12:49.887Z,6.63
2023-05-06T21:15:18.652Z,7.90
2023-05-06T21:17:48.798Z,7.23
2023-05-06T21:20:17.847Z,6.70
2023-05-06T21:22:46.873Z,7.30
2023-05-06T21:25:15.681Z,6.67
2023-05-06T21:27:44.357Z,6.43
2023-05-06T21:30:13.689Z,7.03
2023-05-06T21:32:42.371Z,6.20
2023-05-06T21:35:12.976Z,6.87
2023-05-06T21:37:41.734Z,7.60
2023-05-06T21:40:11.764Z,5.93
2023-05-06T21:42:40.846Z,6.40
2023-05-06T21:45:11.510Z,6.40
2023-05-06T21:47:40.982Z,5.43
2023-05-06T21:50:24.633Z,5.83
2023-05-06T21:52:53.202Z,5.57
2023-05-06T21:55:21.960Z,5.77
2023-05-06T21:57:50.782Z,6.30
2023-05-06T22:00:19.977Z,6.17
2023-05-06T22:02:48.851Z,6.03
2023-05-06T22:05:17.956Z,5.80
2023-05-06T22:07:52.762Z,5.37
2023-05-06T22:10:21.333Z,5.57
2023-05-06T22:12:52.724Z,5.20
2023-05-06T22:15:21.521Z,5.80
2023-05-06T22:17:50.165Z,5.43
2023-05-06T22:20:19.252Z,5.63
2023-05-06T22:22:51.598Z,5.37
2023-05-06T22:25:20.357Z,5.50
2023-05-06T22:27:49.046Z,5.23
2023-05-06T22:30:17.872Z,4.37
2023-05-06T22:32:46.736Z,4.57
2023-05-06T22:35:16.186Z,4.93
2023-05-06T22:37:45.579Z,4.60
2023-05-06T22:40:16.380Z,4.67
2023-05-06T22:42:45.106Z,4.70
2023-05-06T22:45:15.707Z,4.90
2023-05-06T22:47:52.148Z,4.50
2023-05-06T22:50:21.000Z,4.73
2023-05-06T22:52:49.943Z,4.57
2023-05-06T22:55:20.175Z,4.80
2023-05-06T22:57:50.248Z,4.63
2023-05-06T23:00:19.375Z,5.03
2023-05-06T23:02:47.960Z,5.20
2023-05-06T23:05:16.676Z,5.00
2023-05-06T23:07:45.464Z,5.00
2023-05-06T23:10:14.101Z,5.03
2023-05-06T23:12:44.056Z,4.80
2023-05-06T23:15:13.047Z,5.10
2023-05-06T23:17:41.957Z,4.80
2023-05-06T23:20:12.952Z,5.60
2023-05-06T23:22:41.698Z,4.80
2023-05-06T23:25:11.978Z,4.67
2023-05-06T23:27:41.106Z,5.00
2023-05-06T23:30:12.664Z,5.03
2023-05-06T23:32:42.382Z,4.80
2023-05-06T23:35:11.579Z,4.90
2023-05-06T23:37:40.345Z,5.33
2023-05-06T23:40:12.753Z,5.53
2023-05-06T23:42:41.664Z,4.90
2023-05-06T23:45:12.450Z,5.10
2023-05-06T23:47:41.252Z,4.90
2023-05-06T23:50:10.640Z,4.67
2023-05-06T23:52:39.541Z,4.73
2023-05-06T23:55:09.372Z,4.37
2023-05-06T23:57:38.285Z,4.47
